createdAt,value
2018-06-19T00:00:20.245Z,0.00
2018-06-19T00:01:20.241Z,0.00
2018-06-19T00:02:20.246Z,0.00
2018-06-19T00:03:20.257Z,0.00
2018-06-19T00:04:20.234Z,0.00
2018-06-19T00:05:20.236Z,0.00
2018-06-19T00:06:20.234Z,0.00
2018-06-19T00:07:20.223Z,0.00
2018-06-19T00:08:20.229Z,0.00
2018-06-19T00:09:20.225Z,0.00
2018-06-19T00:10:20.218Z,0.00
2018-06-19T00:11:20.225Z,0.00
2018-06-19T00:12:20.222Z,0.00
2018-06-19T00:13:20.214Z,0.00
2018-06-19T00:14:20.209Z,0.00
2018-06-19T00:15:20.215Z,0.00
2018-06-19T00:16:20.203Z,0.00
2018-06-19T00:17:20.205Z,0.00
2018-06-19T00:18:20.197Z,0.00
2018-06-19T00:19:20.209Z,0.00
2018-06-19T00:20:20.195Z,0.00
2018-06-19T00:21:20.191Z,0.00
2018-06-19T00:22:20.193Z,0.00
2018-06-19T00:23:20.188Z,0.00
2018-06-19T00:24:20.183Z,0.00
2018-06-19T00:25:20.181Z,0.00
2018-06-19T00:26:20.184Z,0.00
2018-06-19T00:27:20.188Z,0.00
2018-06-19T00:28:20.173Z,0.00
2018-06-19T00:29:20.175Z,0.00
2018-06-19T00:30:20.175Z,0.00
2018-06-19T00:31:20.175Z,0.00
2018-06-19T00:32:20.166Z,0.00
2018-06-19T00:33:20.170Z,0.00
2018-06-19T00:34:20.160Z,0.00
2018-06-19T00:35:20.168Z,0.00
2018-06-19T00:36:20.155Z,0.00
2018-06-19T00:37:20.152Z,0.00
2018-06-19T00:38:20.152Z,0.00
2018-06-19T00:39:20.154Z,0.00
2018-06-19T00:40:20.147Z,0.00
2018-06-19T00:41:20.145Z,0.00
2018-06-19T00:42:20.148Z,0.00
2018-06-19T00:43:20.151Z,0.00
2018-06-19T00:44:20.139Z,0.00
2018-06-19T00:45:20.136Z,0.00
2018-06-19T00:46:20.147Z,0.00
2018-06-19T00:47:20.137Z,0.00
2018-06-19T00:48:20.129Z,0.00
2018-06-19T00:49:20.140Z,0.00
2018-06-19T00:50:20.123Z,0.00
2018-06-19T00:51:20.119Z,0.00
2018-06-19T00:52:20.126Z,0.00
2018-06-19T00:53:20.115Z,0.00
2018-06-19T00:54:20.134Z,0.00
2018-06-19T00:55:20.110Z,0.00
2018-06-19T00:56:20.109Z,0.00
2018-06-19T00:57:20.112Z,0.00
2018-06-19T00:58:20.100Z,0.00
2018-06-19T00:59:20.108Z,0.00
2018-06-19T01:00:20.112Z,0.00
2018-06-19T01:01:20.094Z,0.00
2018-06-19T01:02:20.090Z,0.00
2018-06-19T01:03:20.097Z,0.00
2018-06-19T01:04:20.096Z,0.00
2018-06-19T01:05:20.094Z,0.00
2018-06-19T01:06:20.100Z,0.00
2018-06-19T01:07:20.094Z,0.00
2018-06-19T01:08:20.084Z,0.00
2018-06-19T01:09:20.075Z,0.00
2018-06-19T01:10:20.074Z,0.00
2018-06-19T01:11:20.078Z,0.00
2018-06-19T01:12:20.066Z,0.00
2018-06-19T01:13:20.068Z,0.00
2018-06-19T01:14:20.075Z,0.00
2018-06-19T01:15:20.063Z,0.00
2018-06-19T01:16:20.056Z,0.00
2018-06-19T01:17:20.058Z,0.00
2018-06-19T01:18:20.050Z,0.00
2018-06-19T01:19:20.051Z,0.00
2018-06-19T01:20:20.056Z,0.00
2018-06-19T01:21:20.048Z,0.00
2018-06-19T01:22:20.048Z,0.00
2018-06-19T01:23:20.040Z,0.00
2018-06-19T01:24:20.038Z,0.00
2018-06-19T01:25:20.041Z,0.00
2018-06-19T01:26:20.028Z,0.00
2018-06-19T01:27:20.038Z,0.00
2018-06-19T01:28:20.024Z,0.00
2018-06-19T01:29:20.032Z,0.00
2018-06-19T01:30:20.021Z,0.00
2018-06-19T01:31:20.015Z,0.00
2018-06-19T01:32:20.015Z,0.00
2018-06-19T01:33:20.008Z,0.00
2018-06-19T01:34:20.004Z,0.00
2018-06-19T01:35:20.004Z,0.00
2018-06-19T01:36:20.002Z,0.00
2018-06-19T01:37:19.996Z,0.00
2018-06-19T01:38:20.016Z,0.00
2018-06-19T01:39:19.988Z,0.00
2018-06-19T01:40:19.985Z,0.00
2018-06-19T01:41:19.980Z,0.00
2018-06-19T01:42:19.978Z,0.00
2018-06-19T01:43:19.984Z,0.00
2018-06-19T01:44:19.969Z,0.00
2018-06-19T01:45:19.968Z,0.00
2018-06-19T01:46:19.977Z,0.00
2018-06-19T01:47:19.970Z,0.00
2018-06-19T01:48:19.966Z,0.00
2018-06-19T01:49:19.962Z,0.00
2018-06-19T01:50:19.954Z,0.00
2018-06-19T01:51:19.965Z,0.00
2018-06-19T01:52:19.952Z,0.00
2018-06-19T01:53:19.949Z,0.00
2018-06-19T01:54:19.946Z,0.00
2018-06-19T01:55:19.943Z,0.00
2018-06-19T01:56:19.937Z,0.00
2018-06-19T01:57:19.933Z,0.00
2018-06-19T01:58:19.931Z,0.00
2018-06-19T01:59:19.938Z,0.00
2018-06-19T02:00:19.928Z,0.00
2018-06-19T02:01:19.927Z,0.00
2018-06-19T02:02:19.920Z,0.00
2018-06-19T02:03:19.919Z,0.00
2018-06-19T02:04:19.912Z,0.00
2018-06-19T02:05:19.913Z,0.00
2018-06-19T02:06:19.915Z,0.00
2018-06-19T02:07:19.918Z,0.00
2018-06-19T02:08:19.905Z,0.00
2018-06-19T02:09:19.897Z,0.00
2018-06-19T02:10:19.906Z,0.00
2018-06-19T02:11:19.892Z,0.00
2018-06-19T02:12:19.898Z,0.00
2018-06-19T02:13:19.902Z,0.00
2018-06-19T02:14:19.886Z,0.00
2018-06-19T02:15:19.884Z,0.00
2018-06-19T02:16:19.880Z,0.00
2018-06-19T02:17:19.879Z,0.00
2018-06-19T02:18:19.880Z,0.00
2018-06-19T02:19:19.878Z,0.00
2018-06-19T02:20:19.870Z,0.00
2018-06-19T02:21:19.864Z,0.00
2018-06-19T02:22:19.862Z,0.00
2018-06-19T02:23:19.858Z,0.00
2018-06-19T02:24:19.855Z,0.00
2018-06-19T02:25:19.856Z,0.00
2018-06-19T02:26:19.857Z,0.00
2018-06-19T02:27:19.856Z,0.00
2018-06-19T02:28:19.854Z,0.00
2018-06-19T02:29:19.847Z,0.00
2018-06-19T02:30:19.845Z,0.00
2018-06-19T02:31:19.846Z,0.00
2018-06-19T02:32:19.832Z,0.00
2018-06-19T02:33:19.836Z,0.00
2018-06-19T02:34:19.835Z,0.00
2018-06-19T02:35:19.830Z,0.00
2018-06-19T02:36:19.834Z,0.00
2018-06-19T02:37:19.834Z,0.00
2018-06-19T02:38:19.817Z,0.00
2018-06-19T02:39:19.813Z,0.00
2018-06-19T02:40:19.818Z,0.00
2018-06-19T02:41:19.811Z,0.00
2018-06-19T02:42:19.806Z,0.00
2018-06-19T02:43:19.815Z,0.00
2018-06-19T02:44:19.801Z,0.00
2018-06-19T02:45:19.796Z,0.00
2018-06-19T02:46:19.792Z,0.00
2018-06-19T02:47:19.794Z,0.00
2018-06-19T02:48:19.794Z,0.00
2018-06-19T02:49:19.787Z,0.00
2018-06-19T02:50:19.787Z,0.00
2018-06-19T02:51:19.780Z,0.00
2018-06-19T02:52:19.773Z,0.00
2018-06-19T02:53:19.774Z,0.00
2018-06-19T02:54:19.771Z,0.00
2018-06-19T02:55:19.787Z,0.00
2018-06-19T02:56:19.767Z,0.00
2018-06-19T02:57:19.766Z,0.00
2018-06-19T02:58:19.762Z,0.00
2018-06-19T02:59:19.766Z,0.00
2018-06-19T03:00:19.840Z,0.00
2018-06-19T03:01:19.764Z,0.00
2018-06-19T03:02:19.747Z,0.00
2018-06-19T03:03:19.741Z,0.00
2018-06-19T03:04:19.738Z,0.00
2018-06-19T03:05:19.739Z,0.00
2018-06-19T03:06:19.732Z,0.00
2018-06-19T03:07:19.733Z,0.00
2018-06-19T03:08:19.728Z,0.00
2018-06-19T03:09:19.725Z,0.00
2018-06-19T03:10:19.728Z,0.00
2018-06-19T03:11:19.733Z,0.00
2018-06-19T03:12:19.713Z,0.00
2018-06-19T03:13:19.721Z,0.00
2018-06-19T03:14:19.709Z,0.00
2018-06-19T03:15:19.711Z,0.00
2018-06-19T03:16:19.709Z,0.00
2018-06-19T03:17:19.707Z,0.00
2018-06-19T03:18:19.700Z,0.00
2018-06-19T03:19:19.706Z,0.00
2018-06-19T03:20:19.702Z,0.00
2018-06-19T03:21:19.685Z,0.00
2018-06-19T03:22:19.684Z,0.00
2018-06-19T03:23:19.682Z,0.00
2018-06-19T03:24:19.684Z,0.00
2018-06-19T03:25:19.671Z,0.00
2018-06-19T03:26:19.677Z,0.00
2018-06-19T03:27:19.668Z,0.00
2018-06-19T03:28:19.668Z,0.00
2018-06-19T03:29:19.672Z,0.00
2018-06-19T03:30:19.758Z,0.00
2018-06-19T03:31:19.662Z,5.63
2018-06-19T03:32:19.660Z,5.63
2018-06-19T03:33:19.650Z,5.63
2018-06-19T03:34:19.650Z,5.63
2018-06-19T03:35:19.640Z,5.63
2018-06-19T03:36:19.651Z,5.63
2018-06-19T03:37:19.641Z,5.63
2018-06-19T03:38:19.635Z,5.63
2018-06-19T03:39:19.630Z,5.63
2018-06-19T03:40:19.623Z,11.25
2018-06-19T03:41:19.619Z,11.25
2018-06-19T03:42:19.621Z,11.25
2018-06-19T03:43:19.619Z,11.25
2018-06-19T03:44:19.619Z,11.25
2018-06-19T03:45:19.609Z,11.25
2018-06-19T03:46:19.611Z,11.25
2018-06-19T03:47:19.605Z,16.88
2018-06-19T03:48:19.604Z,16.88
2018-06-19T03:49:19.602Z,16.88
2018-06-19T03:50:19.593Z,16.88
2018-06-19T03:51:19.590Z,22.50
2018-06-19T03:52:19.581Z,22.50
2018-06-19T03:53:19.584Z,22.50
2018-06-19T03:54:19.585Z,28.13
2018-06-19T03:55:19.573Z,28.13
2018-06-19T03:56:19.578Z,28.13
2018-06-19T03:57:19.565Z,28.13
2018-06-19T03:58:19.571Z,33.75
2018-06-19T03:59:19.569Z,33.75
2018-06-19T04:00:19.563Z,33.75
2018-06-19T04:01:19.556Z,39.38
2018-06-19T04:02:19.543Z,39.38
2018-06-19T04:03:19.544Z,39.38
2018-06-19T04:04:19.541Z,39.38
2018-06-19T04:05:19.538Z,45.00
2018-06-19T04:06:19.539Z,45.00
2018-06-19T04:07:19.547Z,50.63
2018-06-19T04:08:19.532Z,50.63
2018-06-19T04:09:19.532Z,50.63
2018-06-19T04:10:19.578Z,56.25
2018-06-19T04:11:19.520Z,56.25
2018-06-19T04:12:19.519Z,61.88
2018-06-19T04:13:19.518Z,61.88
2018-06-19T04:14:19.512Z,61.88
2018-06-19T04:15:19.506Z,61.88
2018-06-19T04:16:19.507Z,61.88
2018-06-19T04:17:19.502Z,84.38
2018-06-19T04:18:19.496Z,185.63
2018-06-19T04:19:19.496Z,309.38
2018-06-19T04:20:19.495Z,337.50
2018-06-19T04:21:19.489Z,315.00
2018-06-19T04:22:19.483Z,286.88
2018-06-19T04:23:19.482Z,281.25
2018-06-19T04:24:19.489Z,326.25
2018-06-19T04:25:19.477Z,376.88
2018-06-19T04:26:19.481Z,371.25
2018-06-19T04:27:19.473Z,343.13
2018-06-19T04:28:19.471Z,337.50
2018-06-19T04:29:19.466Z,388.13
2018-06-19T04:30:19.473Z,388.13
2018-06-19T04:31:19.464Z,343.13
2018-06-19T04:32:19.463Z,270.00
2018-06-19T04:33:19.517Z,225.00
2018-06-19T04:34:19.459Z,180.00
2018-06-19T04:35:19.460Z,129.38
2018-06-19T04:36:19.457Z,106.88
2018-06-19T04:37:19.461Z,95.63
2018-06-19T04:38:19.464Z,78.75
2018-06-19T04:39:19.457Z,67.50
2018-06-19T04:40:19.458Z,61.88
2018-06-19T04:41:19.454Z,61.88
2018-06-19T04:42:19.458Z,56.25
2018-06-19T04:43:19.454Z,56.25
2018-06-19T04:44:19.460Z,50.63
2018-06-19T04:45:19.452Z,50.63
2018-06-19T04:46:19.449Z,39.38
2018-06-19T04:47:19.448Z,33.75
2018-06-19T04:48:19.451Z,33.75
2018-06-19T04:49:19.455Z,33.75
2018-06-19T04:50:19.448Z,28.13
2018-06-19T04:51:19.471Z,28.13
2018-06-19T04:52:19.443Z,28.13
2018-06-19T04:53:19.434Z,28.13
2018-06-19T04:54:19.456Z,28.13
2018-06-19T04:55:19.433Z,28.13
2018-06-19T04:56:19.441Z,28.13
2018-06-19T04:57:19.438Z,28.13
2018-06-19T04:58:19.426Z,28.13
2018-06-19T04:59:19.424Z,28.13
2018-06-19T05:00:19.423Z,28.13
2018-06-19T05:01:19.426Z,28.13
2018-06-19T05:02:19.419Z,28.13
2018-06-19T05:03:19.416Z,28.13
2018-06-19T05:04:19.413Z,28.13
2018-06-19T05:05:19.411Z,28.13
2018-06-19T05:06:19.408Z,28.13
2018-06-19T05:07:19.412Z,28.13
2018-06-19T05:08:19.407Z,28.13
2018-06-19T05:09:19.412Z,28.13
2018-06-19T05:10:19.403Z,28.13
2018-06-19T05:11:19.405Z,28.13
2018-06-19T05:12:19.399Z,28.13
2018-06-19T05:13:19.402Z,33.75
2018-06-19T05:14:19.401Z,33.75
2018-06-19T05:15:19.399Z,33.75
2018-06-19T05:16:19.386Z,33.75
2018-06-19T05:17:19.391Z,33.75
2018-06-19T05:18:19.397Z,33.75
2018-06-19T05:19:19.386Z,28.13
2018-06-19T05:20:19.436Z,28.13
2018-06-19T05:21:19.388Z,28.13
2018-06-19T05:22:19.375Z,28.13
2018-06-19T05:23:19.378Z,33.75
2018-06-19T05:24:19.370Z,33.75
2018-06-19T05:25:19.376Z,33.75
2018-06-19T05:26:19.371Z,33.75
2018-06-19T05:27:19.372Z,33.75
2018-06-19T05:28:19.361Z,33.75
2018-06-19T05:29:19.361Z,39.38
2018-06-19T05:30:19.383Z,39.38
2018-06-19T05:31:19.364Z,39.38
2018-06-19T05:32:19.354Z,39.38
2018-06-19T05:33:19.351Z,39.38
2018-06-19T05:34:19.349Z,39.38
2018-06-19T05:35:19.350Z,39.38
2018-06-19T05:36:19.350Z,45.00
2018-06-19T05:37:19.351Z,39.38
2018-06-19T05:38:19.341Z,39.38
2018-06-19T05:39:19.348Z,39.38
2018-06-19T05:40:19.340Z,39.38
2018-06-19T05:41:19.327Z,39.38
2018-06-19T05:42:19.323Z,39.38
2018-06-19T05:43:19.325Z,39.38
2018-06-19T05:44:19.322Z,45.00
2018-06-19T05:45:19.321Z,45.00
2018-06-19T05:46:19.345Z,45.00
2018-06-19T05:47:19.320Z,45.00
2018-06-19T05:48:19.309Z,45.00
2018-06-19T05:49:19.313Z,45.00
2018-06-19T05:50:19.314Z,45.00
2018-06-19T05:51:19.301Z,45.00
2018-06-19T05:52:19.307Z,45.00
2018-06-19T05:53:19.306Z,45.00
2018-06-19T05:54:19.301Z,45.00
2018-06-19T05:55:19.295Z,50.63
2018-06-19T05:56:19.294Z,50.63
2018-06-19T05:57:19.305Z,50.63
2018-06-19T05:58:19.291Z,50.63
2018-06-19T05:59:19.289Z,56.25
2018-06-19T06:00:19.284Z,56.25
2018-06-19T06:01:19.282Z,61.88
2018-06-19T06:02:19.283Z,61.88
2018-06-19T06:03:19.292Z,67.50
2018-06-19T06:04:19.282Z,67.50
2018-06-19T06:05:19.271Z,67.50
2018-06-19T06:06:19.269Z,67.50
2018-06-19T06:07:19.272Z,67.50
2018-06-19T06:08:19.269Z,67.50
2018-06-19T06:09:19.261Z,67.50
2018-06-19T06:10:19.264Z,73.13
2018-06-19T06:11:19.274Z,73.13
2018-06-19T06:12:19.272Z,73.13
2018-06-19T06:13:19.256Z,73.13
2018-06-19T06:14:19.259Z,78.75
2018-06-19T06:15:19.252Z,84.38
2018-06-19T06:16:19.247Z,90.00
2018-06-19T06:17:19.257Z,95.63
2018-06-19T06:18:19.242Z,95.63
2018-06-19T06:19:19.249Z,106.88
2018-06-19T06:20:19.252Z,112.50
2018-06-19T06:21:19.244Z,118.13
2018-06-19T06:22:19.245Z,123.75
2018-06-19T06:23:19.239Z,129.38
2018-06-19T06:24:19.234Z,135.00
2018-06-19T06:25:19.239Z,140.63
2018-06-19T06:26:19.233Z,146.25
2018-06-19T06:27:19.230Z,146.25
2018-06-19T06:28:19.230Z,151.88
2018-06-19T06:29:19.235Z,163.13
2018-06-19T06:30:19.228Z,163.13
2018-06-19T06:31:19.288Z,163.13
2018-06-19T06:32:19.233Z,163.13
2018-06-19T06:33:19.233Z,163.13
2018-06-19T06:34:19.232Z,163.13
2018-06-19T06:35:19.221Z,157.50
2018-06-19T06:36:19.219Z,157.50
2018-06-19T06:37:19.225Z,157.50
2018-06-19T06:38:19.219Z,157.50
2018-06-19T06:39:19.217Z,157.50
2018-06-19T06:40:19.222Z,157.50
2018-06-19T06:41:19.221Z,163.13
2018-06-19T06:42:19.216Z,163.13
2018-06-19T06:43:19.215Z,163.13
2018-06-19T06:44:19.213Z,163.13
2018-06-19T06:45:19.222Z,168.75
2018-06-19T06:46:19.215Z,174.38
2018-06-19T06:47:19.219Z,180.00
2018-06-19T06:48:19.213Z,180.00
2018-06-19T06:49:19.209Z,174.38
2018-06-19T06:50:19.229Z,168.75
2018-06-19T06:51:19.216Z,168.75
2018-06-19T06:52:19.209Z,174.38
2018-06-19T06:53:19.212Z,180.00
2018-06-19T06:54:19.214Z,196.88
2018-06-19T06:55:19.205Z,213.75
2018-06-19T06:56:19.215Z,213.75
2018-06-19T06:57:19.212Z,213.75
2018-06-19T06:58:19.224Z,196.88
2018-06-19T06:59:19.210Z,196.88
2018-06-19T07:00:19.218Z,191.25
2018-06-19T07:01:19.388Z,202.50
2018-06-19T07:02:19.215Z,208.13
2018-06-19T07:03:19.215Z,202.50
2018-06-19T07:04:19.206Z,202.50
2018-06-19T07:05:19.210Z,202.50
2018-06-19T07:06:19.211Z,202.50
2018-06-19T07:07:19.224Z,208.13
2018-06-19T07:08:19.209Z,202.50
2018-06-19T07:09:19.217Z,202.50
2018-06-19T07:10:19.217Z,196.88
2018-06-19T07:11:19.213Z,191.25
2018-06-19T07:12:19.215Z,196.88
2018-06-19T07:13:19.217Z,191.25
2018-06-19T07:14:19.220Z,196.88
2018-06-19T07:15:19.218Z,196.88
2018-06-19T07:16:19.231Z,202.50
2018-06-19T07:17:19.222Z,196.88
2018-06-19T07:18:19.223Z,180.00
2018-06-19T07:19:19.233Z,174.38
2018-06-19T07:20:19.219Z,180.00
2018-06-19T07:21:19.225Z,185.63
2018-06-19T07:22:19.231Z,185.63
2018-06-19T07:23:19.223Z,185.63
2018-06-19T07:24:19.236Z,191.25
2018-06-19T07:25:19.228Z,191.25
2018-06-19T07:26:19.229Z,185.63
2018-06-19T07:27:19.228Z,185.63
2018-06-19T07:28:19.238Z,174.38
2018-06-19T07:29:19.233Z,168.75
2018-06-19T07:30:19.236Z,163.13
2018-06-19T07:31:19.237Z,151.88
2018-06-19T07:32:19.237Z,151.88
2018-06-19T07:33:19.247Z,146.25
2018-06-19T07:34:19.238Z,146.25
2018-06-19T07:35:19.248Z,146.25
2018-06-19T07:36:19.239Z,140.63
2018-06-19T07:37:19.250Z,140.63
2018-06-19T07:38:19.250Z,140.63
2018-06-19T07:39:19.244Z,140.63
2018-06-19T07:40:19.266Z,140.63
2018-06-19T07:41:19.250Z,140.63
2018-06-19T07:42:19.262Z,135.00
2018-06-19T07:43:19.261Z,135.00
2018-06-19T07:44:19.258Z,135.00
2018-06-19T07:45:19.267Z,129.38
2018-06-19T07:46:19.254Z,129.38
2018-06-19T07:47:19.256Z,129.38
2018-06-19T07:48:19.256Z,129.38
2018-06-19T07:49:19.270Z,129.38
2018-06-19T07:50:19.262Z,129.38
2018-06-19T07:51:19.270Z,129.38
2018-06-19T07:52:19.264Z,129.38
2018-06-19T07:53:19.272Z,129.38
2018-06-19T07:54:19.268Z,129.38
2018-06-19T07:55:19.274Z,129.38
2018-06-19T07:56:19.268Z,129.38
2018-06-19T07:57:19.305Z,129.38
2018-06-19T07:58:19.308Z,129.38
2018-06-19T07:59:19.270Z,129.38
2018-06-19T08:00:19.273Z,129.38
2018-06-19T08:01:19.279Z,129.38
2018-06-19T08:02:19.278Z,129.38
2018-06-19T08:03:19.281Z,129.38
2018-06-19T08:04:19.286Z,129.38
2018-06-19T08:05:19.285Z,129.38
2018-06-19T08:06:19.285Z,129.38
2018-06-19T08:07:19.283Z,129.38
2018-06-19T08:08:19.289Z,129.38
2018-06-19T08:09:19.291Z,129.38
2018-06-19T08:10:19.287Z,123.75
2018-06-19T08:11:19.292Z,123.75
2018-06-19T08:12:19.292Z,123.75
2018-06-19T08:13:19.298Z,123.75
2018-06-19T08:14:19.292Z,123.75
2018-06-19T08:15:19.294Z,123.75
2018-06-19T08:16:19.296Z,123.75
2018-06-19T08:17:19.306Z,123.75
2018-06-19T08:18:19.295Z,123.75
2018-06-19T08:19:19.307Z,123.75
2018-06-19T08:20:19.299Z,123.75
2018-06-19T08:21:19.304Z,123.75
2018-06-19T08:22:19.307Z,118.13
2018-06-19T08:23:19.303Z,118.13
2018-06-19T08:24:19.319Z,118.13
2018-06-19T08:25:19.307Z,112.50
2018-06-19T08:26:19.311Z,112.50
2018-06-19T08:27:19.312Z,112.50
2018-06-19T08:28:19.306Z,112.50
2018-06-19T08:29:19.313Z,112.50
2018-06-19T08:30:19.311Z,84.38
2018-06-19T08:31:19.314Z,101.25
2018-06-19T08:32:19.319Z,106.88
2018-06-19T08:33:19.330Z,101.25
2018-06-19T08:34:19.332Z,112.50
2018-06-19T08:35:19.326Z,112.50
2018-06-19T08:36:19.345Z,118.13
2018-06-19T08:37:19.327Z,101.25
2018-06-19T08:38:19.322Z,78.75
2018-06-19T08:39:19.333Z,84.38
2018-06-19T08:40:19.343Z,78.75
2018-06-19T08:41:19.327Z,84.38
2018-06-19T08:42:19.328Z,84.38
2018-06-19T08:43:19.333Z,84.38
2018-06-19T08:44:19.339Z,78.75
2018-06-19T08:45:19.337Z,90.00
2018-06-19T08:46:19.333Z,123.75
2018-06-19T08:47:19.335Z,123.75
2018-06-19T08:48:19.338Z,106.88
2018-06-19T08:49:19.346Z,90.00
2018-06-19T08:50:19.342Z,84.38
2018-06-19T08:51:19.351Z,90.00
2018-06-19T08:52:19.350Z,84.38
2018-06-19T08:53:19.346Z,90.00
2018-06-19T08:54:19.350Z,90.00
2018-06-19T08:55:19.410Z,90.00
2018-06-19T08:56:19.344Z,90.00
2018-06-19T08:57:19.348Z,90.00
2018-06-19T08:58:19.360Z,90.00
2018-06-19T08:59:19.353Z,90.00
2018-06-19T09:00:19.379Z,95.63
2018-06-19T09:01:19.358Z,112.50
2018-06-19T09:02:19.354Z,118.13
2018-06-19T09:03:19.355Z,123.75
2018-06-19T09:04:19.355Z,135.00
2018-06-19T09:05:19.361Z,135.00
2018-06-19T09:06:19.360Z,135.00
2018-06-19T09:07:19.360Z,129.38
2018-06-19T09:08:19.377Z,101.25
2018-06-19T09:09:19.367Z,106.88
2018-06-19T09:10:19.365Z,101.25
2018-06-19T09:11:19.382Z,129.38
2018-06-19T09:12:19.391Z,118.13
2018-06-19T09:13:19.425Z,106.88
2018-06-19T09:14:19.373Z,112.50
2018-06-19T09:15:19.377Z,140.63
2018-06-19T09:16:19.381Z,146.25
2018-06-19T09:17:19.379Z,140.63
2018-06-19T09:18:19.381Z,146.25
2018-06-19T09:19:19.382Z,146.25
2018-06-19T09:20:19.412Z,140.63
2018-06-19T09:21:19.381Z,140.63
2018-06-19T09:22:19.386Z,140.63
2018-06-19T09:23:19.394Z,140.63
2018-06-19T09:24:19.434Z,140.63
2018-06-19T09:25:19.397Z,140.63
2018-06-19T09:26:19.402Z,140.63
2018-06-19T09:27:19.412Z,140.63
2018-06-19T09:28:19.397Z,140.63
2018-06-19T09:29:19.400Z,140.63
2018-06-19T09:30:19.405Z,140.63
2018-06-19T09:31:19.471Z,140.63
2018-06-19T09:32:19.412Z,140.63
2018-06-19T09:33:19.412Z,140.63
2018-06-19T09:34:19.417Z,140.63
2018-06-19T09:35:19.433Z,123.75
2018-06-19T09:36:19.419Z,140.63
2018-06-19T09:37:19.424Z,118.13
2018-06-19T09:38:19.430Z,140.63
2018-06-19T09:39:19.432Z,140.63
2018-06-19T09:40:19.435Z,140.63
2018-06-19T09:41:19.434Z,140.63
2018-06-19T09:42:19.437Z,135.00
2018-06-19T09:43:19.445Z,135.00
2018-06-19T09:44:19.441Z,140.63
2018-06-19T09:45:19.448Z,140.63
2018-06-19T09:46:19.450Z,135.00
2018-06-19T09:47:19.454Z,135.00
2018-06-19T09:48:19.470Z,129.38
2018-06-19T09:49:19.463Z,129.38
2018-06-19T09:50:19.477Z,123.75
2018-06-19T09:51:19.516Z,118.13
2018-06-19T09:52:19.498Z,106.88
2018-06-19T09:53:19.475Z,112.50
2018-06-19T09:54:19.482Z,118.13
2018-06-19T09:55:19.487Z,118.13
2018-06-19T09:56:19.485Z,112.50
2018-06-19T09:57:19.487Z,112.50
2018-06-19T09:58:19.506Z,112.50
2018-06-19T09:59:19.526Z,112.50
2018-06-19T10:00:19.508Z,112.50
2018-06-19T10:01:19.497Z,112.50
2018-06-19T10:02:19.512Z,118.13
2018-06-19T10:03:19.516Z,118.13
2018-06-19T10:04:19.507Z,118.13
2018-06-19T10:05:19.520Z,123.75
2018-06-19T10:06:19.611Z,123.75
2018-06-19T10:07:19.521Z,123.75
2018-06-19T10:08:19.518Z,123.75
2018-06-19T10:09:19.531Z,123.75
2018-06-19T10:10:19.530Z,123.75
2018-06-19T10:11:19.527Z,129.38
2018-06-19T10:12:19.583Z,129.38
2018-06-19T10:13:19.542Z,129.38
2018-06-19T10:14:19.541Z,129.38
2018-06-19T10:15:19.549Z,129.38
2018-06-19T10:16:19.540Z,129.38
2018-06-19T10:17:19.546Z,129.38
2018-06-19T10:18:19.552Z,123.75
2018-06-19T10:19:19.549Z,123.75
2018-06-19T10:20:19.560Z,123.75
2018-06-19T10:21:19.554Z,84.38
2018-06-19T10:22:19.561Z,78.75
2018-06-19T10:23:19.562Z,84.38
2018-06-19T10:24:19.562Z,84.38
2018-06-19T10:25:19.566Z,84.38
2018-06-19T10:26:19.587Z,95.63
2018-06-19T10:27:19.573Z,90.00
2018-06-19T10:28:19.585Z,90.00
2018-06-19T10:29:19.583Z,90.00
2018-06-19T10:30:19.585Z,90.00
2018-06-19T10:31:19.589Z,90.00
2018-06-19T10:32:19.598Z,90.00
2018-06-19T10:33:19.597Z,90.00
2018-06-19T10:34:19.604Z,90.00
2018-06-19T10:35:19.597Z,95.63
2018-06-19T10:36:19.606Z,95.63
2018-06-19T10:37:19.615Z,95.63
2018-06-19T10:38:19.606Z,95.63
2018-06-19T10:39:19.614Z,101.25
2018-06-19T10:40:19.692Z,118.13
2018-06-19T10:41:19.615Z,118.13
2018-06-19T10:42:19.618Z,129.38
2018-06-19T10:43:19.634Z,106.88
2018-06-19T10:44:19.626Z,101.25
2018-06-19T10:45:19.627Z,112.50
2018-06-19T10:46:19.634Z,118.13
2018-06-19T10:47:19.637Z,129.38
2018-06-19T10:48:19.633Z,123.75
2018-06-19T10:49:19.637Z,118.13
2018-06-19T10:50:19.642Z,129.38
2018-06-19T10:51:19.641Z,129.38
2018-06-19T10:52:19.647Z,123.75
2018-06-19T10:53:19.649Z,118.13
2018-06-19T10:54:19.655Z,118.13
2018-06-19T10:55:19.663Z,112.50
2018-06-19T10:56:19.658Z,106.88
2018-06-19T10:57:19.664Z,78.75
2018-06-19T10:58:19.662Z,95.63
2018-06-19T10:59:19.667Z,106.88
2018-06-19T11:00:19.665Z,118.13
2018-06-19T11:01:19.669Z,123.75
2018-06-19T11:02:19.680Z,112.50
2018-06-19T11:03:19.684Z,106.88
2018-06-19T11:04:19.682Z,112.50
2018-06-19T11:05:19.684Z,118.13
2018-06-19T11:06:19.688Z,118.13
2018-06-19T11:07:19.753Z,118.13
2018-06-19T11:08:19.802Z,118.13
2018-06-19T11:09:19.696Z,118.13
2018-06-19T11:10:19.714Z,118.13
2018-06-19T11:11:19.710Z,118.13
2018-06-19T11:12:19.706Z,118.13
2018-06-19T11:13:19.726Z,118.13
2018-06-19T11:14:19.713Z,118.13
2018-06-19T11:15:19.720Z,118.13
2018-06-19T11:16:19.720Z,118.13
2018-06-19T11:17:19.737Z,118.13
2018-06-19T11:18:19.730Z,118.13
2018-06-19T11:19:19.740Z,118.13
2018-06-19T11:20:19.747Z,118.13
2018-06-19T11:21:19.782Z,123.75
2018-06-19T11:22:19.745Z,123.75
2018-06-19T11:23:19.753Z,118.13
2018-06-19T11:24:19.745Z,118.13
2018-06-19T11:25:19.755Z,118.13
2018-06-19T11:26:19.764Z,118.13
2018-06-19T11:27:19.766Z,118.13
2018-06-19T11:28:19.763Z,118.13
2018-06-19T11:29:19.768Z,118.13
2018-06-19T11:30:19.769Z,112.50
2018-06-19T11:31:19.785Z,112.50
2018-06-19T11:32:19.782Z,112.50
2018-06-19T11:33:19.785Z,112.50
2018-06-19T11:34:19.779Z,112.50
2018-06-19T11:35:19.791Z,112.50
2018-06-19T11:36:19.793Z,112.50
2018-06-19T11:37:19.789Z,112.50
2018-06-19T11:38:19.793Z,112.50
2018-06-19T11:39:19.805Z,112.50
2018-06-19T11:40:19.799Z,112.50
2018-06-19T11:41:19.807Z,112.50
2018-06-19T11:42:19.816Z,112.50
2018-06-19T11:43:19.877Z,112.50
2018-06-19T11:44:19.822Z,112.50
2018-06-19T11:45:19.827Z,112.50
2018-06-19T11:46:19.822Z,118.13
2018-06-19T11:47:19.832Z,112.50
2018-06-19T11:48:19.827Z,112.50
2018-06-19T11:49:19.929Z,118.13
2018-06-19T11:50:19.837Z,118.13
2018-06-19T11:51:19.899Z,118.13
2018-06-19T11:52:19.847Z,118.13
2018-06-19T11:53:19.858Z,118.13
2018-06-19T11:54:19.851Z,118.13
2018-06-19T11:55:19.863Z,118.13
2018-06-19T11:56:19.865Z,118.13
2018-06-19T11:57:19.878Z,118.13
2018-06-19T11:58:19.870Z,118.13
2018-06-19T11:59:19.873Z,112.50
2018-06-19T12:00:19.870Z,112.50
2018-06-19T12:01:19.886Z,112.50
2018-06-19T12:02:19.882Z,112.50
2018-06-19T12:03:19.892Z,112.50
2018-06-19T12:04:19.896Z,112.50
2018-06-19T12:05:19.906Z,112.50
2018-06-19T12:06:19.902Z,112.50
2018-06-19T12:07:19.901Z,112.50
2018-06-19T12:08:19.902Z,112.50
2018-06-19T12:09:19.905Z,118.13
2018-06-19T12:10:19.928Z,118.13
2018-06-19T12:11:19.913Z,118.13
2018-06-19T12:12:19.918Z,112.50
2018-06-19T12:13:19.925Z,118.13
2018-06-19T12:14:19.925Z,118.13
2018-06-19T12:15:19.929Z,118.13
2018-06-19T12:16:19.937Z,118.13
2018-06-19T12:17:19.949Z,112.50
2018-06-19T12:18:19.944Z,112.50
2018-06-19T12:19:19.957Z,112.50
2018-06-19T12:20:19.967Z,112.50
2018-06-19T12:21:19.954Z,112.50
2018-06-19T12:22:19.957Z,112.50
2018-06-19T12:23:19.965Z,112.50
2018-06-19T12:24:19.967Z,112.50
2018-06-19T12:25:19.970Z,112.50
2018-06-19T12:26:19.977Z,112.50
2018-06-19T12:27:19.980Z,118.13
2018-06-19T12:28:19.981Z,112.50
2018-06-19T12:29:19.984Z,118.13
2018-06-19T12:30:19.990Z,118.13
2018-06-19T12:31:20.005Z,118.13
2018-06-19T12:32:20.008Z,112.50
2018-06-19T12:33:20.002Z,112.50
2018-06-19T12:34:20.007Z,112.50
2018-06-19T12:35:20.012Z,112.50
2018-06-19T12:36:20.028Z,112.50
2018-06-19T12:37:20.062Z,118.13
2018-06-19T12:38:20.020Z,118.13
2018-06-19T12:39:20.024Z,118.13
2018-06-19T12:40:20.032Z,118.13
2018-06-19T12:41:20.030Z,112.50
2018-06-19T12:42:20.039Z,112.50
2018-06-19T12:43:20.051Z,112.50
2018-06-19T12:44:20.054Z,112.50
2018-06-19T12:45:20.051Z,112.50
2018-06-19T12:46:20.060Z,112.50
2018-06-19T12:47:20.053Z,112.50